sensor_id;sensor_type;location;lat;lon;timestamp;temperature;humidity
16313;DHT22;8265;52.622;13.296;2023-03-23T00:03:17;10.30;73.20
16313;DHT22;8265;52.622;13.296;2023-03-23T00:08:38;10.20;73.90
16313;DHT22;8265;52.622;13.296;2023-03-23T00:14:00;10.00;74.40
16313;DHT22;8265;52.622;13.296;2023-03-23T00:19:20;10.00;74.70
16313;DHT22;8265;52.622;13.296;2023-03-23T00:24:41;10.10;74.20
16313;DHT22;8265;52.622;13.296;2023-03-23T00:30:02;10.00;74.70
16313;DHT22;8265;52.622;13.296;2023-03-23T00:35:23;10.00;74.70
16313;DHT22;8265;52.622;13.296;2023-03-23T00:40:45;10.00;74.70
16313;DHT22;8265;52.622;13.296;2023-03-23T00:46:05;9.80;74.80
16313;DHT22;8265;52.622;13.296;2023-03-23T00:51:26;9.70;75.10
16313;DHT22;8265;52.622;13.296;2023-03-23T00:56:47;9.70;75.50
16313;DHT22;8265;52.622;13.296;2023-03-23T01:02:08;9.60;75.90
16313;DHT22;8265;52.622;13.296;2023-03-23T01:07:29;9.40;76.60
16313;DHT22;8265;52.622;13.296;2023-03-23T01:12:50;9.20;77.20
16313;DHT22;8265;52.622;13.296;2023-03-23T01:18:11;9.20;77.50
16313;DHT22;8265;52.622;13.296;2023-03-23T01:23:33;9.10;78.10
16313;DHT22;8265;52.622;13.296;2023-03-23T01:28:53;9.00;78.30
16313;DHT22;8265;52.622;13.296;2023-03-23T01:34:14;9.00;78.80
16313;DHT22;8265;52.622;13.296;2023-03-23T01:39:35;9.00;79.10
16313;DHT22;8265;52.622;13.296;2023-03-23T01:45:44;9.00;79.00
16313;DHT22;8265;52.622;13.296;2023-03-23T01:50:17;9.10;78.50
16313;DHT22;8265;52.622;13.296;2023-03-23T01:55:39;9.20;78.30
16313;DHT22;8265;52.622;13.296;2023-03-23T02:01:01;9.20;78.10
16313;DHT22;8265;52.622;13.296;2023-03-23T02:06:20;9.40;77.70
16313;DHT22;8265;52.622;13.296;2023-03-23T02:11:41;9.50;77.20
16313;DHT22;8265;52.622;13.296;2023-03-23T02:28:09;9.90;75.80
16313;DHT22;8265;52.622;13.296;2023-03-23T02:38:28;10.20;75.00
16313;DHT22;8265;52.622;13.296;2023-03-23T02:43:47;10.30;74.20
16313;DHT22;8265;52.622;13.296;2023-03-23T02:49:08;10.40;73.60
16313;DHT22;8265;52.622;13.296;2023-03-23T02:54:29;10.40;75.50
16313;DHT22;8265;52.622;13.296;2023-03-23T02:59:50;10.30;77.40
16313;DHT22;8265;52.622;13.296;2023-03-23T03:05:30;10.20;78.40
16313;DHT22;8265;52.622;13.296;2023-03-23T03:21:14;10.40;75.70
16313;DHT22;8265;52.622;13.296;2023-03-23T03:26:35;10.60;75.70
16313;DHT22;8265;52.622;13.296;2023-03-23T03:31:56;10.60;75.20
16313;DHT22;8265;52.622;13.296;2023-03-23T03:37:17;10.50;77.50
16313;DHT22;8265;52.622;13.296;2023-03-23T03:42:38;10.20;80.30
16313;DHT22;8265;52.622;13.296;2023-03-23T03:47:59;9.80;85.50
16313;DHT22;8265;52.622;13.296;2023-03-23T03:53:20;9.50;87.00
16313;DHT22;8265;52.622;13.296;2023-03-23T03:58:41;9.40;89.30
16313;DHT22;8265;52.622;13.296;2023-03-23T04:04:02;9.30;90.10
16313;DHT22;8265;52.622;13.296;2023-03-23T04:09:23;9.30;91.20
16313;DHT22;8265;52.622;13.296;2023-03-23T04:14:44;9.20;91.40
16313;DHT22;8265;52.622;13.296;2023-03-23T04:20:05;9.40;89.70
16313;DHT22;8265;52.622;13.296;2023-03-23T04:25:26;9.20;89.90
16313;DHT22;8265;52.622;13.296;2023-03-23T04:30:46;9.20;91.30
16313;DHT22;8265;52.622;13.296;2023-03-23T04:36:08;9.10;92.80
16313;DHT22;8265;52.622;13.296;2023-03-23T04:41:28;9.00;93.10
16313;DHT22;8265;52.622;13.296;2023-03-23T04:46:49;9.00;93.00
16313;DHT22;8265;52.622;13.296;2023-03-23T04:52:10;9.20;91.90
16313;DHT22;8265;52.622;13.296;2023-03-23T04:57:32;9.20;92.00
16313;DHT22;8265;52.622;13.296;2023-03-23T05:02:53;9.20;92.30
16313;DHT22;8265;52.622;13.296;2023-03-23T05:08:13;9.20;93.50
16313;DHT22;8265;52.622;13.296;2023-03-23T05:13:34;9.00;94.80
16313;DHT22;8265;52.622;13.296;2023-03-23T05:18:55;8.90;96.00
16313;DHT22;8265;52.622;13.296;2023-03-23T05:24:16;8.90;96.90
16313;DHT22;8265;52.622;13.296;2023-03-23T05:29:37;8.90;97.00
16313;DHT22;8265;52.622;13.296;2023-03-23T05:34:59;8.90;97.10
16313;DHT22;8265;52.622;13.296;2023-03-23T05:40:19;8.90;96.80
16313;DHT22;8265;52.622;13.296;2023-03-23T05:45:40;8.90;96.50
16313;DHT22;8265;52.622;13.296;2023-03-23T05:51:01;8.90;96.70
16313;DHT22;8265;52.622;13.296;2023-03-23T05:56:22;8.80;96.60
16313;DHT22;8265;52.622;13.296;2023-03-23T06:01:46;8.80;96.80
16313;DHT22;8265;52.622;13.296;2023-03-23T06:07:04;8.80;96.50
16313;DHT22;8265;52.622;13.296;2023-03-23T06:12:25;8.80;96.90
16313;DHT22;8265;52.622;13.296;2023-03-23T06:17:46;8.80;97.10
16313;DHT22;8265;52.622;13.296;2023-03-23T06:23:07;8.80;97.60
16313;DHT22;8265;52.622;13.296;2023-03-23T06:28:28;8.80;97.50
16313;DHT22;8265;52.622;13.296;2023-03-23T06:33:49;8.80;97.90
16313;DHT22;8265;52.622;13.296;2023-03-23T06:39:10;8.90;97.90
16313;DHT22;8265;52.622;13.296;2023-03-23T06:44:31;8.90;97.60
16313;DHT22;8265;52.622;13.296;2023-03-23T06:49:52;9.00;97.80
16313;DHT22;8265;52.622;13.296;2023-03-23T06:55:13;9.10;97.30
16313;DHT22;8265;52.622;13.296;2023-03-23T07:00:34;9.20;97.50
16313;DHT22;8265;52.622;13.296;2023-03-23T07:05:55;9.20;97.60
16313;DHT22;8265;52.622;13.296;2023-03-23T07:11:16;9.20;97.20
16313;DHT22;8265;52.622;13.296;2023-03-23T07:16:37;9.40;97.30
16313;DHT22;8265;52.622;13.296;2023-03-23T07:21:58;9.40;97.50
16313;DHT22;8265;52.622;13.296;2023-03-23T07:27:19;9.40;97.00
16313;DHT22;8265;52.622;13.296;2023-03-23T07:32:40;9.40;97.60
16313;DHT22;8265;52.622;13.296;2023-03-23T07:38:01;9.40;97.50
16313;DHT22;8265;52.622;13.296;2023-03-23T07:43:22;9.40;97.50
16313;DHT22;8265;52.622;13.296;2023-03-23T07:48:43;9.60;98.10
16313;DHT22;8265;52.622;13.296;2023-03-23T07:54:04;9.80;96.90
16313;DHT22;8265;52.622;13.296;2023-03-23T07:59:25;10.00;96.20
16313;DHT22;8265;52.622;13.296;2023-03-23T08:04:46;10.10;95.60
16313;DHT22;8265;52.622;13.296;2023-03-23T08:10:08;10.20;96.40
16313;DHT22;8265;52.622;13.296;2023-03-23T08:15:28;10.20;96.00
16313;DHT22;8265;52.622;13.296;2023-03-23T08:20:49;10.00;95.50
16313;DHT22;8265;52.622;13.296;2023-03-23T08:26:10;10.10;95.50
16313;DHT22;8265;52.622;13.296;2023-03-23T08:31:31;10.10;95.20
16313;DHT22;8265;52.622;13.296;2023-03-23T08:36:52;10.10;94.70
16313;DHT22;8265;52.622;13.296;2023-03-23T08:42:13;10.30;94.90
16313;DHT22;8265;52.622;13.296;2023-03-23T08:47:34;10.50;93.50
16313;DHT22;8265;52.622;13.296;2023-03-23T08:52:55;10.90;93.50
16313;DHT22;8265;52.622;13.296;2023-03-23T08:58:16;11.10;92.70
16313;DHT22;8265;52.622;13.296;2023-03-23T09:03:37;10.90;91.40
16313;DHT22;8265;52.622;13.296;2023-03-23T09:08:58;10.90;91.90
16313;DHT22;8265;52.622;13.296;2023-03-23T09:14:19;10.90;91.50
16313;DHT22;8265;52.622;13.296;2023-03-23T09:19:40;11.00;91.20
16313;DHT22;8265;52.622;13.296;2023-03-23T09:30:06;11.30;90.30
16313;DHT22;8265;52.622;13.296;2023-03-23T09:35:26;11.70;89.50
16313;DHT22;8265;52.622;13.296;2023-03-23T09:56:50;12.50;84.20
16313;DHT22;8265;52.622;13.296;2023-03-23T10:02:15;13.00;84.30
16313;DHT22;8265;52.622;13.296;2023-03-23T10:07:32;13.40;81.00
16313;DHT22;8265;52.622;13.296;2023-03-23T10:12:59;13.20;80.70
16313;DHT22;8265;52.622;13.296;2023-03-23T10:18:22;13.00;81.50
16313;DHT22;8265;52.622;13.296;2023-03-23T10:29:07;13.30;80.50
16313;DHT22;8265;52.622;13.296;2023-03-23T10:34:28;13.50;79.20
16313;DHT22;8265;52.622;13.296;2023-03-23T10:39:41;13.60;77.80
16313;DHT22;8265;52.622;13.296;2023-03-23T10:45:00;13.90;77.10
16313;DHT22;8265;52.622;13.296;2023-03-23T10:50:30;14.10;77.20
16313;DHT22;8265;52.622;13.296;2023-03-23T10:55:41;14.10;76.00
16313;DHT22;8265;52.622;13.296;2023-03-23T11:01:03;14.00;75.70
16313;DHT22;8265;52.622;13.296;2023-03-23T11:06:27;14.20;74.30
16313;DHT22;8265;52.622;13.296;2023-03-23T11:11:50;14.00;74.70
16313;DHT22;8265;52.622;13.296;2023-03-23T11:17:05;13.90;74.40
16313;DHT22;8265;52.622;13.296;2023-03-23T11:22:31;13.90;74.70
16313;DHT22;8265;52.622;13.296;2023-03-23T11:27:47;13.90;74.40
16313;DHT22;8265;52.622;13.296;2023-03-23T11:33:08;14.30;73.60
16313;DHT22;8265;52.622;13.296;2023-03-23T11:38:29;14.50;72.30
16313;DHT22;8265;52.622;13.296;2023-03-23T11:43:51;14.90;71.60
16313;DHT22;8265;52.622;13.296;2023-03-23T11:49:24;14.60;71.70
16313;DHT22;8265;52.622;13.296;2023-03-23T11:54:33;15.00;71.20
16313;DHT22;8265;52.622;13.296;2023-03-23T11:59:53;15.00;70.40
16313;DHT22;8265;52.622;13.296;2023-03-23T12:16:20;14.60;70.40
16313;DHT22;8265;52.622;13.296;2023-03-23T12:21:39;14.50;71.10
16313;DHT22;8265;52.622;13.296;2023-03-23T12:26:39;14.60;70.70
16313;DHT22;8265;52.622;13.296;2023-03-23T12:32:34;14.70;69.50
16313;DHT22;8265;52.622;13.296;2023-03-23T12:42:59;14.40;69.90
16313;DHT22;8265;52.622;13.296;2023-03-23T12:48:03;14.30;70.20
16313;DHT22;8265;52.622;13.296;2023-03-23T12:53:27;14.60;69.70
16313;DHT22;8265;52.622;13.296;2023-03-23T12:58:44;15.30;68.30
16313;DHT22;8265;52.622;13.296;2023-03-23T13:04:15;15.90;66.30
16313;DHT22;8265;52.622;13.296;2023-03-23T13:09:27;15.50;66.80
16313;DHT22;8265;52.622;13.296;2023-03-23T13:25:38;16.20;64.80
16313;DHT22;8265;52.622;13.296;2023-03-23T13:30:56;16.40;62.70
16313;DHT22;8265;52.622;13.296;2023-03-23T13:36:11;16.30;63.00
16313;DHT22;8265;52.622;13.296;2023-03-23T13:41:31;16.80;61.30
16313;DHT22;8265;52.622;13.296;2023-03-23T13:47:22;16.70;61.20
16313;DHT22;8265;52.622;13.296;2023-03-23T13:57:36;16.70;59.70
16313;DHT22;8265;52.622;13.296;2023-03-23T14:13:50;16.50;59.50
16313;DHT22;8265;52.622;13.296;2023-03-23T14:19:00;16.20;58.90
16313;DHT22;8265;52.622;13.296;2023-03-23T14:29:41;15.60;59.10
16313;DHT22;8265;52.622;13.296;2023-03-23T14:35:04;15.40;60.10
16313;DHT22;8265;52.622;13.296;2023-03-23T14:40:22;15.30;60.50
16313;DHT22;8265;52.622;13.296;2023-03-23T14:45:51;15.60;60.50
16313;DHT22;8265;52.622;13.296;2023-03-23T14:51:04;15.70;60.40
16313;DHT22;8265;52.622;13.296;2023-03-23T14:56:32;16.50;58.20
16313;DHT22;8265;52.622;13.296;2023-03-23T15:01:47;16.60;57.50
16313;DHT22;8265;52.622;13.296;2023-03-23T15:07:08;16.20;57.70
16313;DHT22;8265;52.622;13.296;2023-03-23T15:12:29;16.40;58.20
16313;DHT22;8265;52.622;13.296;2023-03-23T15:17:49;16.80;57.70
16313;DHT22;8265;52.622;13.296;2023-03-23T15:23:14;16.60;56.20
16313;DHT22;8265;52.622;13.296;2023-03-23T15:28:32;16.20;56.70
16313;DHT22;8265;52.622;13.296;2023-03-23T15:33:55;16.00;58.80
16313;DHT22;8265;52.622;13.296;2023-03-23T15:39:13;16.00;57.10
16313;DHT22;8265;52.622;13.296;2023-03-23T15:44:34;16.50;56.50
16313;DHT22;8265;52.622;13.296;2023-03-23T15:50:15;16.20;56.90
16313;DHT22;8265;52.622;13.296;2023-03-23T15:55:29;16.00;57.40
16313;DHT22;8265;52.622;13.296;2023-03-23T16:00:37;15.50;58.10
16313;DHT22;8265;52.622;13.296;2023-03-23T16:05:58;15.30;58.60
16313;DHT22;8265;52.622;13.296;2023-03-23T16:11:19;15.20;58.30
16313;DHT22;8265;52.622;13.296;2023-03-23T16:16:44;15.00;57.90
16313;DHT22;8265;52.622;13.296;2023-03-23T16:22:01;14.60;66.20
16313;DHT22;8265;52.622;13.296;2023-03-23T16:27:22;13.70;70.70
16313;DHT22;8265;52.622;13.296;2023-03-23T16:32:43;13.20;73.20
16313;DHT22;8265;52.622;13.296;2023-03-23T16:38:04;12.90;75.30
16313;DHT22;8265;52.622;13.296;2023-03-23T16:43:25;12.80;75.50
16313;DHT22;8265;52.622;13.296;2023-03-23T16:48:46;12.70;76.20
16313;DHT22;8265;52.622;13.296;2023-03-23T16:54:07;12.50;77.30
16313;DHT22;8265;52.622;13.296;2023-03-23T16:59:28;12.30;78.30
16313;DHT22;8265;52.622;13.296;2023-03-23T17:04:49;12.10;79.10
16313;DHT22;8265;52.622;13.296;2023-03-23T17:10:11;12.20;79.00
16313;DHT22;8265;52.622;13.296;2023-03-23T17:15:31;12.00;79.70
16313;DHT22;8265;52.622;13.296;2023-03-23T17:20:52;11.90;80.20
16313;DHT22;8265;52.622;13.296;2023-03-23T17:26:13;11.80;80.40
16313;DHT22;8265;52.622;13.296;2023-03-23T17:31:34;11.70;80.90
16313;DHT22;8265;52.622;13.296;2023-03-23T17:36:55;11.50;82.20
16313;DHT22;8265;52.622;13.296;2023-03-23T17:42:16;11.50;80.60
16313;DHT22;8265;52.622;13.296;2023-03-23T17:47:37;11.30;82.10
16313;DHT22;8265;52.622;13.296;2023-03-23T17:52:58;11.10;82.10
16313;DHT22;8265;52.622;13.296;2023-03-23T17:58:19;11.00;82.30
16313;DHT22;8265;52.622;13.296;2023-03-23T18:03:40;11.00;81.70
16313;DHT22;8265;52.622;13.296;2023-03-23T18:09:01;10.90;82.40
16313;DHT22;8265;52.622;13.296;2023-03-23T18:14:22;10.80;82.80
16313;DHT22;8265;52.622;13.296;2023-03-23T18:19:43;10.60;83.90
16313;DHT22;8265;52.622;13.296;2023-03-23T18:25:04;10.70;83.70
16313;DHT22;8265;52.622;13.296;2023-03-23T18:30:25;10.70;83.90
16313;DHT22;8265;52.622;13.296;2023-03-23T18:35:46;10.60;84.20
16313;DHT22;8265;52.622;13.296;2023-03-23T18:41:07;10.60;84.60
16313;DHT22;8265;52.622;13.296;2023-03-23T18:46:28;10.70;84.60
16313;DHT22;8265;52.622;13.296;2023-03-23T18:51:49;10.70;84.50
16313;DHT22;8265;52.622;13.296;2023-03-23T18:57:10;10.60;85.10
16313;DHT22;8265;52.622;13.296;2023-03-23T19:02:31;10.50;86.00
16313;DHT22;8265;52.622;13.296;2023-03-23T19:07:52;10.50;86.50
16313;DHT22;8265;52.622;13.296;2023-03-23T19:13:13;10.50;86.80
16313;DHT22;8265;52.622;13.296;2023-03-23T19:18:34;10.40;87.10
16313;DHT22;8265;52.622;13.296;2023-03-23T19:23:55;10.50;87.50
16313;DHT22;8265;52.622;13.296;2023-03-23T19:29:16;10.50;87.80
16313;DHT22;8265;52.622;13.296;2023-03-23T19:34:37;10.50;88.20
16313;DHT22;8265;52.622;13.296;2023-03-23T19:39:58;10.40;88.70
16313;DHT22;8265;52.622;13.296;2023-03-23T19:45:19;10.40;88.60
16313;DHT22;8265;52.622;13.296;2023-03-23T19:50:40;10.40;88.70
16313;DHT22;8265;52.622;13.296;2023-03-23T19:56:01;10.50;88.70
16313;DHT22;8265;52.622;13.296;2023-03-23T20:01:22;10.50;88.50
16313;DHT22;8265;52.622;13.296;2023-03-23T20:06:43;10.60;88.20
16313;DHT22;8265;52.622;13.296;2023-03-23T20:12:04;10.60;88.90
16313;DHT22;8265;52.622;13.296;2023-03-23T20:17:25;10.60;88.60
16313;DHT22;8265;52.622;13.296;2023-03-23T20:22:46;10.60;90.00
16313;DHT22;8265;52.622;13.296;2023-03-23T20:28:07;10.50;90.90
16313;DHT22;8265;52.622;13.296;2023-03-23T20:33:28;10.40;91.30
16313;DHT22;8265;52.622;13.296;2023-03-23T20:38:49;10.40;91.60
16313;DHT22;8265;52.622;13.296;2023-03-23T20:44:11;10.40;92.20
16313;DHT22;8265;52.622;13.296;2023-03-23T20:49:31;10.30;93.20
16313;DHT22;8265;52.622;13.296;2023-03-23T20:54:52;10.40;92.20
16313;DHT22;8265;52.622;13.296;2023-03-23T21:00:13;10.40;93.00
16313;DHT22;8265;52.622;13.296;2023-03-23T21:05:34;10.20;93.90
16313;DHT22;8265;52.622;13.296;2023-03-23T21:10:55;10.20;94.50
16313;DHT22;8265;52.622;13.296;2023-03-23T21:16:16;10.10;94.90
16313;DHT22;8265;52.622;13.296;2023-03-23T21:21:37;10.10;95.20
16313;DHT22;8265;52.622;13.296;2023-03-23T21:26:59;10.00;95.60
16313;DHT22;8265;52.622;13.296;2023-03-23T21:32:19;10.00;95.90
16313;DHT22;8265;52.622;13.296;2023-03-23T21:37:40;9.70;96.60
16313;DHT22;8265;52.622;13.296;2023-03-23T21:43:01;9.70;97.10
16313;DHT22;8265;52.622;13.296;2023-03-23T21:48:22;9.70;96.20
16313;DHT22;8265;52.622;13.296;2023-03-23T21:53:43;9.20;96.80
16313;DHT22;8265;52.622;13.296;2023-03-23T21:59:04;9.00;97.70
16313;DHT22;8265;52.622;13.296;2023-03-23T22:04:25;8.80;98.20
16313;DHT22;8265;52.622;13.296;2023-03-23T22:09:46;8.60;98.30
16313;DHT22;8265;52.622;13.296;2023-03-23T22:15:08;8.60;98.80
16313;DHT22;8265;52.622;13.296;2023-03-23T22:20:28;8.60;99.30
16313;DHT22;8265;52.622;13.296;2023-03-23T22:25:49;8.60;99.70
16313;DHT22;8265;52.622;13.296;2023-03-23T22:31:11;8.80;99.90
16313;DHT22;8265;52.622;13.296;2023-03-23T22:36:31;8.90;99.90
16313;DHT22;8265;52.622;13.296;2023-03-23T22:41:51;9.00;99.90
16313;DHT22;8265;52.622;13.296;2023-03-23T22:47:12;9.00;99.70
16313;DHT22;8265;52.622;13.296;2023-03-23T22:52:33;9.00;99.30
16313;DHT22;8265;52.622;13.296;2023-03-23T22:57:54;8.90;99.10
16313;DHT22;8265;52.622;13.296;2023-03-23T23:03:15;8.70;98.80
16313;DHT22;8265;52.622;13.296;2023-03-23T23:08:36;8.60;99.00
16313;DHT22;8265;52.622;13.296;2023-03-23T23:13:57;8.50;99.20
16313;DHT22;8265;52.622;13.296;2023-03-23T23:19:18;8.60;99.50
16313;DHT22;8265;52.622;13.296;2023-03-23T23:24:39;8.60;99.70
16313;DHT22;8265;52.622;13.296;2023-03-23T23:30:00;8.60;99.80
16313;DHT22;8265;52.622;13.296;2023-03-23T23:35:21;8.60;99.60
16313;DHT22;8265;52.622;13.296;2023-03-23T23:40:43;8.60;99.10
16313;DHT22;8265;52.622;13.296;2023-03-23T23:46:03;8.50;98.80
16313;DHT22;8265;52.622;13.296;2023-03-23T23:51:24;8.40;98.80
16313;DHT22;8265;52.622;13.296;2023-03-23T23:56:45;8.50;98.80
